createdAt,value
2018-12-18T00:01:42.866Z,7.37
2018-12-18T00:04:13.333Z,7.36
2018-12-18T00:06:40.975Z,7.40
2018-12-18T00:09:09.659Z,7.39
2018-12-18T00:11:37.132Z,7.39
2018-12-18T00:14:04.636Z,7.40
2018-12-18T00:16:32.326Z,7.41
2018-12-18T00:18:59.835Z,7.42
2018-12-18T00:21:27.340Z,7.41
2018-12-18T00:23:54.815Z,7.40
2018-12-18T00:26:22.341Z,7.40
2018-12-18T00:28:50.181Z,7.42
2018-12-18T00:31:18.094Z,7.44
2018-12-18T00:33:46.181Z,7.44
2018-12-18T00:36:15.064Z,7.41
2018-12-18T00:38:42.909Z,7.41
2018-12-18T00:41:10.531Z,7.39
2018-12-18T00:43:38.031Z,7.37
2018-12-18T00:46:05.546Z,7.38
2018-12-18T00:48:33.105Z,7.38
2018-12-18T00:51:00.735Z,7.33
2018-12-18T00:53:28.228Z,7.32
2018-12-18T00:55:55.777Z,7.32
2018-12-18T00:58:23.337Z,7.33
2018-12-18T01:00:51.030Z,7.36
2018-12-18T01:03:19.284Z,7.34
2018-12-18T01:05:46.822Z,7.36
2018-12-18T01:08:14.295Z,7.38
2018-12-18T01:10:41.855Z,7.35
2018-12-18T01:13:09.541Z,7.36
2018-12-18T01:15:37.037Z,7.36
2018-12-18T01:18:04.547Z,7.37
2018-12-18T01:20:32.017Z,7.35
2018-12-18T01:22:59.529Z,7.40
2018-12-18T01:25:28.369Z,7.38
2018-12-18T01:27:57.529Z,7.36
2018-12-18T01:30:26.128Z,7.38
2018-12-18T01:32:53.957Z,7.37
2018-12-18T01:35:21.501Z,7.35
2018-12-18T01:37:49.461Z,7.34
2018-12-18T01:40:20.522Z,7.37
2018-12-18T01:42:47.993Z,7.38
2018-12-18T01:45:16.011Z,7.40
2018-12-18T01:47:43.448Z,7.39
2018-12-18T01:50:10.918Z,7.38
2018-12-18T01:52:38.422Z,7.38
2018-12-18T01:55:06.688Z,7.37
2018-12-18T01:57:34.530Z,7.32
2018-12-18T02:00:02.056Z,7.30
2018-12-18T02:02:29.681Z,7.32
2018-12-18T02:04:57.182Z,7.34
2018-12-18T02:07:24.701Z,7.38
2018-12-18T02:09:52.180Z,7.36
2018-12-18T02:12:19.832Z,7.36
2018-12-18T02:14:47.305Z,7.36
2018-12-18T02:17:14.800Z,7.38
2018-12-18T02:19:42.346Z,7.40
2018-12-18T02:22:09.892Z,7.39
2018-12-18T02:24:38.065Z,7.40
2018-12-18T02:27:05.693Z,7.40
2018-12-18T02:29:33.202Z,7.41
2018-12-18T02:32:00.811Z,7.45
2018-12-18T02:34:28.325Z,7.45
2018-12-18T02:36:56.119Z,7.44
2018-12-18T02:39:23.722Z,7.46
2018-12-18T02:41:51.221Z,7.50
2018-12-18T02:44:18.714Z,7.48
2018-12-18T02:46:46.266Z,7.54
2018-12-18T02:49:13.910Z,7.55
2018-12-18T02:51:41.586Z,7.53
2018-12-18T02:54:09.137Z,7.55
2018-12-18T02:56:36.798Z,7.54
2018-12-18T02:59:04.275Z,7.56
2018-12-18T03:01:31.821Z,7.57
2018-12-18T03:03:59.379Z,7.57
2018-12-18T03:06:27.777Z,7.55
2018-12-18T03:08:55.406Z,7.56
2018-12-18T03:11:22.954Z,7.56
2018-12-18T03:13:50.517Z,7.57
2018-12-18T03:16:18.122Z,7.59
2018-12-18T03:18:45.657Z,7.57
2018-12-18T03:21:13.295Z,7.59
2018-12-18T03:23:41.674Z,7.57
2018-12-18T03:26:09.290Z,7.60
2018-12-18T03:28:36.890Z,7.60
2018-12-18T03:31:04.405Z,7.61
2018-12-18T03:33:31.929Z,7.63
2018-12-18T03:35:59.395Z,7.61
2018-12-18T03:38:27.008Z,7.62
2018-12-18T03:40:54.593Z,7.60
2018-12-18T03:43:23.094Z,7.60
2018-12-18T03:45:53.229Z,7.58
2018-12-18T03:48:20.784Z,7.56
2018-12-18T03:50:48.374Z,7.55
2018-12-18T03:53:16.074Z,7.50
2018-12-18T03:55:43.559Z,7.54
2018-12-18T03:58:12.485Z,7.54
2018-12-18T04:00:40.018Z,7.51
2018-12-18T04:03:07.667Z,7.52
2018-12-18T04:05:35.144Z,7.52
2018-12-18T04:08:03.554Z,7.51
2018-12-18T04:10:31.973Z,7.47
2018-12-18T04:12:59.586Z,7.51
2018-12-18T04:15:27.130Z,7.48
2018-12-18T04:17:54.825Z,7.49
2018-12-18T04:20:24.259Z,7.46
2018-12-18T04:22:51.799Z,7.45
2018-12-18T04:25:19.397Z,7.47
2018-12-18T04:27:46.953Z,7.48
2018-12-18T04:30:14.494Z,7.50
2018-12-18T04:32:42.278Z,7.47
2018-12-18T04:35:09.788Z,7.49
2018-12-18T04:37:37.364Z,7.47
2018-12-18T04:40:06.975Z,7.48
2018-12-18T04:42:34.525Z,7.48
2018-12-18T04:45:02.126Z,7.46
2018-12-18T04:47:29.884Z,7.44
2018-12-18T04:49:57.405Z,7.44
2018-12-18T04:52:25.027Z,7.46
2018-12-18T04:54:52.610Z,7.40
2018-12-18T04:57:20.091Z,7.36
2018-12-18T04:59:47.581Z,7.36
2018-12-18T05:02:15.018Z,7.36
2018-12-18T05:04:49.993Z,7.36
2018-12-18T05:07:12.244Z,7.35
2018-12-18T05:09:39.766Z,7.37
2018-12-18T05:12:07.270Z,7.38
2018-12-18T05:14:35.062Z,7.38
2018-12-18T05:17:02.861Z,7.37
2018-12-18T05:19:30.369Z,7.37
2018-12-18T05:21:58.513Z,7.43
2018-12-18T05:24:25.989Z,7.44
2018-12-18T05:26:53.500Z,7.43
2018-12-18T05:29:20.982Z,7.42
2018-12-18T05:31:48.489Z,7.45
2018-12-18T05:34:15.980Z,7.47
2018-12-18T05:36:43.423Z,7.47
2018-12-18T05:39:10.930Z,7.46
2018-12-18T05:41:38.447Z,7.43
2018-12-18T05:44:06.107Z,7.40
2018-12-18T05:46:33.927Z,7.39
2018-12-18T05:49:01.513Z,7.43
2018-12-18T05:51:29.044Z,7.41
2018-12-18T05:53:56.496Z,7.39
2018-12-18T05:56:24.019Z,7.39
2018-12-18T05:58:51.530Z,7.41
2018-12-18T06:01:18.993Z,7.43
2018-12-18T06:03:46.503Z,7.41
2018-12-18T06:06:13.984Z,7.43
2018-12-18T06:08:41.607Z,7.42
2018-12-18T06:11:09.079Z,7.39
2018-12-18T06:13:36.634Z,7.36
2018-12-18T06:16:04.098Z,7.34
2018-12-18T06:18:31.676Z,7.28
2018-12-18T06:20:59.368Z,7.29
2018-12-18T06:23:26.969Z,7.30
2018-12-18T06:25:54.489Z,7.31
2018-12-18T06:28:21.968Z,7.31
2018-12-18T06:30:49.542Z,7.35
2018-12-18T06:33:17.136Z,7.35
2018-12-18T06:35:44.718Z,7.34
2018-12-18T06:38:13.400Z,7.33
2018-12-18T06:40:42.565Z,7.31
2018-12-18T06:43:10.202Z,7.32
2018-12-18T06:45:37.692Z,7.32
2018-12-18T06:48:05.219Z,7.32
2018-12-18T06:50:39.812Z,7.31
2018-12-18T06:53:07.420Z,7.26
2018-12-18T06:55:34.920Z,7.34
2018-12-18T06:58:02.496Z,7.39
2018-12-18T07:00:30.036Z,7.41
2018-12-18T07:02:57.502Z,7.45
2018-12-18T07:05:25.049Z,7.45
2018-12-18T07:07:57.429Z,7.41
2018-12-18T07:10:22.322Z,7.47
2018-12-18T07:12:49.931Z,7.44
2018-12-18T07:15:17.489Z,7.46
2018-12-18T07:17:45.642Z,7.46
2018-12-18T07:20:13.125Z,7.46
2018-12-18T07:22:40.620Z,7.49
2018-12-18T07:25:08.185Z,7.49
2018-12-18T07:27:35.712Z,7.47
2018-12-18T07:30:04.072Z,7.47
2018-12-18T07:32:32.300Z,7.48
2018-12-18T07:34:59.866Z,7.52
2018-12-18T07:37:27.867Z,7.50
2018-12-18T07:39:55.390Z,7.47
2018-12-18T07:42:22.876Z,7.49
2018-12-18T07:44:50.407Z,7.45
2018-12-18T07:47:17.986Z,7.47
2018-12-18T07:49:45.481Z,7.46
2018-12-18T07:52:12.954Z,7.45
2018-12-18T07:54:40.450Z,7.43
2018-12-18T07:57:07.933Z,7.42
2018-12-18T07:59:35.420Z,7.44
2018-12-18T08:02:02.893Z,7.43
2018-12-18T08:04:30.401Z,7.46
2018-12-18T08:06:57.935Z,7.48
2018-12-18T08:09:27.056Z,7.50
2018-12-18T08:11:55.005Z,7.47
2018-12-18T08:14:22.706Z,7.45
2018-12-18T08:16:50.327Z,7.50
2018-12-18T08:19:17.986Z,7.51
2018-12-18T08:21:45.483Z,7.46
2018-12-18T08:24:13.025Z,7.46
2018-12-18T08:26:40.675Z,7.49
2018-12-18T08:29:08.164Z,7.43
2018-12-18T08:31:35.757Z,7.49
2018-12-18T08:34:03.201Z,7.50
2018-12-18T08:36:30.801Z,7.51
2018-12-18T08:38:58.283Z,7.52
2018-12-18T08:41:25.803Z,7.50
2018-12-18T08:43:53.393Z,7.51
2018-12-18T08:46:20.881Z,7.51
2018-12-18T08:48:48.380Z,7.52
2018-12-18T08:51:16.208Z,7.47
2018-12-18T08:53:43.729Z,7.49
2018-12-18T08:56:11.262Z,7.49
2018-12-18T08:58:38.729Z,7.53
2018-12-18T09:01:06.183Z,7.58
2018-12-18T09:03:33.678Z,7.57
2018-12-18T09:06:01.330Z,7.58
2018-12-18T09:08:28.801Z,7.62
2018-12-18T09:10:57.129Z,7.59
2018-12-18T09:13:24.614Z,7.56
2018-12-18T09:15:56.109Z,7.57
2018-12-18T09:18:23.730Z,7.55
2018-12-18T09:20:51.252Z,7.54
2018-12-18T09:23:18.778Z,7.59
2018-12-18T09:25:46.278Z,7.58
2018-12-18T09:28:13.766Z,7.59
2018-12-18T09:30:42.712Z,7.63
2018-12-18T09:33:10.632Z,7.64
2018-12-18T09:35:38.116Z,7.67
2018-12-18T09:38:11.189Z,7.67
2018-12-18T09:40:44.144Z,7.67
2018-12-18T09:43:17.219Z,7.66
2018-12-18T09:45:44.747Z,7.71
2018-12-18T09:48:12.296Z,7.75
2018-12-18T09:50:39.771Z,7.72
2018-12-18T09:53:07.295Z,7.79
2018-12-18T09:55:34.747Z,7.79
2018-12-18T09:58:04.296Z,7.80
2018-12-18T10:00:31.789Z,7.83
2018-12-18T10:02:59.307Z,7.83
2018-12-18T10:05:27.765Z,7.85
2018-12-18T10:07:55.348Z,7.87
2018-12-18T10:10:23.647Z,7.87
2018-12-18T10:12:55.848Z,7.87
2018-12-18T10:15:25.039Z,7.87
2018-12-18T10:17:52.503Z,7.89
2018-12-18T10:20:20.108Z,7.92
2018-12-18T10:22:47.556Z,7.90
2018-12-18T10:25:15.154Z,7.92
2018-12-18T10:27:43.613Z,7.93
2018-12-18T10:30:11.111Z,7.93
2018-12-18T10:32:38.564Z,7.98
2018-12-18T10:35:06.423Z,8.00
2018-12-18T10:37:33.971Z,8.04
2018-12-18T10:40:01.759Z,7.97
2018-12-18T10:42:29.312Z,7.99
2018-12-18T10:44:56.842Z,7.99
2018-12-18T10:47:24.318Z,8.05
2018-12-18T10:49:51.820Z,8.06
2018-12-18T10:52:19.323Z,8.18
2018-12-18T10:54:46.801Z,8.32
2018-12-18T10:57:14.240Z,8.26
2018-12-18T10:59:41.866Z,8.32
2018-12-18T11:02:09.523Z,8.38
2018-12-18T11:04:37.094Z,8.28
2018-12-18T11:07:05.717Z,8.29
2018-12-18T11:09:33.270Z,8.32
2018-12-18T11:12:00.765Z,8.34
2018-12-18T11:14:28.481Z,8.24
2018-12-18T11:16:56.113Z,8.22
2018-12-18T11:19:23.650Z,8.18
2018-12-18T11:21:51.209Z,8.22
2018-12-18T11:24:18.645Z,8.26
2018-12-18T11:26:46.298Z,8.22
2018-12-18T11:29:14.092Z,8.26
2018-12-18T11:31:41.646Z,8.28
2018-12-18T11:34:10.471Z,8.27
2018-12-18T11:36:37.966Z,8.24
2018-12-18T11:39:06.412Z,8.23
2018-12-18T11:41:33.919Z,8.27
2018-12-18T11:44:01.469Z,8.23
2018-12-18T11:46:28.936Z,8.13
2018-12-18T11:48:56.414Z,8.11
2018-12-18T11:51:23.923Z,8.02
2018-12-18T11:53:51.499Z,8.02
2018-12-18T11:56:18.968Z,8.03
2018-12-18T11:58:46.622Z,8.10
2018-12-18T12:01:14.192Z,8.18
2018-12-18T12:03:41.730Z,8.24
2018-12-18T12:06:09.228Z,8.30
2018-12-18T12:08:36.884Z,8.29
2018-12-18T12:11:05.049Z,8.31
2018-12-18T12:13:33.113Z,8.35
2018-12-18T12:16:00.792Z,8.39
2018-12-18T12:18:28.887Z,8.40
2018-12-18T12:20:56.506Z,8.35
2018-12-18T12:23:23.977Z,8.37
2018-12-18T12:25:51.541Z,8.37
2018-12-18T12:28:19.075Z,8.43
2018-12-18T12:30:47.047Z,8.43
2018-12-18T12:33:14.560Z,8.53
2018-12-18T12:35:42.042Z,8.65
2018-12-18T12:38:09.471Z,8.71
2018-12-18T12:40:37.084Z,8.75
2018-12-18T12:43:04.581Z,8.52
2018-12-18T12:45:32.154Z,8.28
2018-12-18T12:47:59.717Z,8.12
2018-12-18T12:50:27.584Z,8.06
2018-12-18T12:52:55.305Z,7.99
2018-12-18T12:55:22.986Z,7.95
2018-12-18T12:57:50.487Z,7.91
2018-12-18T13:00:18.064Z,7.90
2018-12-18T13:02:45.547Z,7.81
2018-12-18T13:05:13.205Z,7.78
2018-12-18T13:07:40.790Z,7.79
2018-12-18T13:10:08.401Z,7.85
2018-12-18T13:12:35.978Z,7.90
2018-12-18T13:15:04.099Z,7.97
2018-12-18T13:17:31.578Z,8.05
2018-12-18T13:19:59.171Z,8.08
2018-12-18T13:22:27.608Z,8.08
2018-12-18T13:24:55.106Z,8.03
2018-12-18T13:27:22.605Z,7.98
2018-12-18T13:29:51.083Z,8.00
2018-12-18T13:32:18.572Z,8.00
2018-12-18T13:34:46.064Z,7.98
2018-12-18T13:37:13.641Z,7.94
2018-12-18T13:39:41.148Z,7.95
2018-12-18T13:42:08.717Z,7.94
2018-12-18T13:44:36.517Z,7.92
2018-12-18T13:47:04.181Z,7.89
2018-12-18T13:49:31.795Z,7.86
2018-12-18T13:51:59.274Z,7.85
2018-12-18T13:54:27.010Z,7.85
2018-12-18T13:56:56.107Z,7.79
2018-12-18T13:59:23.647Z,7.68
2018-12-18T14:01:51.121Z,7.65
2018-12-18T14:04:18.738Z,7.62
2018-12-18T14:06:49.575Z,7.63
2018-12-18T14:09:15.752Z,7.64
2018-12-18T14:11:43.256Z,7.65
2018-12-18T14:14:10.864Z,7.66
2018-12-18T14:16:38.523Z,7.64
2018-12-18T14:19:06.066Z,7.64
2018-12-18T14:21:33.577Z,7.64
2018-12-18T14:24:01.068Z,7.63
2018-12-18T14:26:29.241Z,7.65
2018-12-18T14:28:56.793Z,7.59
2018-12-18T14:31:24.272Z,7.56
2018-12-18T14:33:51.728Z,7.45
2018-12-18T14:36:19.192Z,7.40
2018-12-18T14:38:46.789Z,7.36
2018-12-18T14:41:14.357Z,7.37
2018-12-18T14:43:43.013Z,7.34
2018-12-18T14:46:11.673Z,7.26
2018-12-18T14:48:39.188Z,7.23
2018-12-18T14:51:06.627Z,7.20
2018-12-18T14:53:34.154Z,7.22
2018-12-18T14:56:01.620Z,7.11
2018-12-18T14:58:29.419Z,7.10
2018-12-18T15:00:56.889Z,7.12
2018-12-18T15:03:24.352Z,7.10
2018-12-18T15:05:51.964Z,7.12
2018-12-18T15:08:19.651Z,7.10
2018-12-18T15:10:47.238Z,7.09
2018-12-18T15:13:15.073Z,7.10
2018-12-18T15:15:42.552Z,7.10
2018-12-18T15:18:10.003Z,7.05
2018-12-18T15:20:37.575Z,6.93
2018-12-18T15:23:05.052Z,6.79
2018-12-18T15:25:32.517Z,6.70
2018-12-18T15:28:00.042Z,6.65
2018-12-18T15:30:27.667Z,6.61
2018-12-18T15:32:55.637Z,6.55
2018-12-18T15:35:23.722Z,6.59
2018-12-18T15:37:52.148Z,6.63
2018-12-18T15:40:19.670Z,6.64
2018-12-18T15:42:47.166Z,6.66
2018-12-18T15:45:14.661Z,6.62
2018-12-18T15:47:42.103Z,6.63
2018-12-18T15:50:09.614Z,6.65
2018-12-18T15:52:37.058Z,6.63
2018-12-18T15:55:05.191Z,6.61
2018-12-18T15:57:32.623Z,6.64
2018-12-18T16:00:00.169Z,6.65
2018-12-18T16:02:27.690Z,6.53
2018-12-18T16:04:55.357Z,6.45
2018-12-18T16:07:23.882Z,6.40
2018-12-18T16:09:51.362Z,6.24
2018-12-18T16:12:18.958Z,6.20
2018-12-18T16:14:46.485Z,6.16
2018-12-18T16:17:13.936Z,6.12
2018-12-18T16:19:41.492Z,6.02
2018-12-18T16:22:09.018Z,5.97
2018-12-18T16:24:36.566Z,5.96
2018-12-18T16:27:04.047Z,6.00
2018-12-18T16:29:31.596Z,6.06
2018-12-18T16:31:59.179Z,6.13
2018-12-18T16:34:26.793Z,6.17
2018-12-18T16:36:54.303Z,6.21
2018-12-18T16:39:21.767Z,6.19
2018-12-18T16:41:49.248Z,6.18
2018-12-18T16:44:16.776Z,6.19
2018-12-18T16:46:44.279Z,6.10
2018-12-18T16:49:11.799Z,6.00
2018-12-18T16:51:39.347Z,5.81
2018-12-18T16:54:07.194Z,5.81
2018-12-18T16:56:35.056Z,5.76
2018-12-18T16:59:02.623Z,5.82
2018-12-18T17:01:30.100Z,5.86
2018-12-18T17:03:57.561Z,5.90
2018-12-18T17:06:25.051Z,5.81
2018-12-18T17:08:52.653Z,5.80
2018-12-18T17:11:20.149Z,5.82
2018-12-18T17:13:47.778Z,5.89
2018-12-18T17:16:16.447Z,5.91
2018-12-18T17:18:44.048Z,5.90
2018-12-18T17:21:11.521Z,5.88
2018-12-18T17:23:39.471Z,5.86
2018-12-18T17:26:06.952Z,5.88
2018-12-18T17:28:34.443Z,5.98
2018-12-18T17:31:01.968Z,6.04
2018-12-18T17:33:29.424Z,6.05
2018-12-18T17:35:57.055Z,6.00
2018-12-18T17:38:25.689Z,5.93
2018-12-18T17:40:53.431Z,6.00
2018-12-18T17:43:21.243Z,6.01
2018-12-18T17:45:48.747Z,5.94
2018-12-18T17:48:16.204Z,5.98
2018-12-18T17:53:22.740Z,5.86
2018-12-18T17:55:50.196Z,5.82
2018-12-18T17:58:17.800Z,5.82
2018-12-18T18:00:45.331Z,5.77
2018-12-18T18:03:13.003Z,5.72
2018-12-18T18:05:40.542Z,5.72
2018-12-18T18:08:08.220Z,5.76
2018-12-18T18:10:36.628Z,5.78
2018-12-18T18:13:04.080Z,5.79
2018-12-18T18:15:31.547Z,5.83
2018-12-18T18:17:59.142Z,5.78
2018-12-18T18:20:26.655Z,5.67
2018-12-18T18:22:54.118Z,5.61
2018-12-18T18:25:21.820Z,5.52
2018-12-18T18:27:49.426Z,5.49
2018-12-18T18:30:17.960Z,5.45
2018-12-18T18:32:46.656Z,5.46
2018-12-18T18:35:14.102Z,5.47
2018-12-18T18:37:41.580Z,5.43
2018-12-18T18:40:09.037Z,5.37
2018-12-18T18:42:36.519Z,5.32
2018-12-18T18:45:04.499Z,5.35
2018-12-18T18:47:31.951Z,5.32
2018-12-18T18:49:59.407Z,5.29
2018-12-18T18:52:31.334Z,5.25
2018-12-18T18:55:03.370Z,5.28
2018-12-18T18:57:31.960Z,5.21
2018-12-18T19:00:01.902Z,5.13
2018-12-18T19:02:29.398Z,5.09
2018-12-18T19:04:58.478Z,5.13
2018-12-18T19:07:30.056Z,5.10
2018-12-18T19:09:59.219Z,5.11
2018-12-18T19:12:32.373Z,5.13
2018-12-18T19:15:00.740Z,5.10
2018-12-18T19:17:28.874Z,5.13
2018-12-18T19:19:56.387Z,5.11
2018-12-18T19:22:23.953Z,5.06
2018-12-18T19:24:51.471Z,5.07
2018-12-18T19:27:18.966Z,4.99
2018-12-18T19:29:47.166Z,5.00
2018-12-18T19:32:14.608Z,5.05
2018-12-18T19:34:43.033Z,5.02
2018-12-18T19:37:10.632Z,5.04
2018-12-18T19:39:38.517Z,5.01
2018-12-18T19:42:06.394Z,4.88
2018-12-18T19:44:34.591Z,4.91
2018-12-18T19:47:02.094Z,4.87
2018-12-18T19:49:29.889Z,4.82
2018-12-18T19:51:57.492Z,4.84
2018-12-18T19:54:25.057Z,4.84
2018-12-18T19:56:53.520Z,4.84
2018-12-18T19:59:21.127Z,4.81
2018-12-18T20:01:48.641Z,4.84
2018-12-18T20:04:16.113Z,4.91
2018-12-18T20:06:43.611Z,4.90
2018-12-18T20:09:11.155Z,4.97
2018-12-18T20:11:38.691Z,4.92
2018-12-18T20:14:06.164Z,4.88
2018-12-18T20:16:33.962Z,4.91
2018-12-18T20:19:01.393Z,4.91
2018-12-18T20:21:28.896Z,4.96
2018-12-18T20:23:56.367Z,4.97
2018-12-18T20:26:23.850Z,4.94
2018-12-18T20:28:51.360Z,4.93
2018-12-18T20:31:18.801Z,4.90
2018-12-18T20:33:46.494Z,4.87
2018-12-18T20:36:14.073Z,4.89
2018-12-18T20:38:42.625Z,4.89
2018-12-18T20:41:10.154Z,4.97
2018-12-18T20:43:37.631Z,4.99
2018-12-18T20:46:05.126Z,4.94
2018-12-18T20:48:32.981Z,4.96
2018-12-18T20:51:00.440Z,4.91
2018-12-18T20:53:27.932Z,4.86
2018-12-18T20:55:55.407Z,4.82
2018-12-18T20:58:23.087Z,4.83
2018-12-18T21:00:50.728Z,4.87
2018-12-18T21:03:18.278Z,4.85
2018-12-18T21:05:45.781Z,4.80
2018-12-18T21:08:13.813Z,4.86
2018-12-18T21:10:41.298Z,4.91
2018-12-18T21:13:14.460Z,4.84
2018-12-18T21:15:42.451Z,4.82
2018-12-18T21:18:10.054Z,4.82
2018-12-18T21:20:37.529Z,4.79
2018-12-18T21:23:05.003Z,4.79
2018-12-18T21:25:33.137Z,4.81
2018-12-18T21:28:00.580Z,4.76
2018-12-18T21:30:28.639Z,4.73
2018-12-18T21:32:56.122Z,4.72
2018-12-18T21:35:23.718Z,4.69
2018-12-18T21:37:51.246Z,4.67
2018-12-18T21:40:18.774Z,4.68
2018-12-18T21:42:46.226Z,4.67
2018-12-18T21:45:13.687Z,4.63
2018-12-18T21:47:41.166Z,4.63
2018-12-18T21:50:08.795Z,4.71
2018-12-18T21:52:36.267Z,4.65
2018-12-18T21:55:04.301Z,4.56
2018-12-18T21:57:31.874Z,4.51
2018-12-18T21:59:59.407Z,4.52
2018-12-18T22:02:26.958Z,4.51
2018-12-18T22:04:54.447Z,4.54
2018-12-18T22:07:21.913Z,4.57
2018-12-18T22:09:49.362Z,4.47
2018-12-18T22:12:16.910Z,4.44
2018-12-18T22:14:44.451Z,4.42
2018-12-18T22:17:11.923Z,4.44
2018-12-18T22:19:39.485Z,4.43
2018-12-18T22:22:06.987Z,4.45
2018-12-18T22:24:34.580Z,4.46
2018-12-18T22:27:02.495Z,4.41
2018-12-18T22:29:30.010Z,4.40
2018-12-18T22:31:57.491Z,4.42
2018-12-18T22:34:25.064Z,4.45
2018-12-18T22:36:52.530Z,4.47
2018-12-18T22:39:20.057Z,4.44
2018-12-18T22:41:47.563Z,4.48
2018-12-18T22:44:15.002Z,4.33
2018-12-18T22:46:42.456Z,4.19
2018-12-18T22:49:10.000Z,4.12
2018-12-18T22:51:37.483Z,4.08
2018-12-18T22:54:04.995Z,4.16
2018-12-18T22:56:33.231Z,4.20
2018-12-18T22:59:00.871Z,4.22
2018-12-18T23:01:35.926Z,4.27
2018-12-18T23:04:03.580Z,4.27
2018-12-18T23:09:15.895Z,4.27
2018-12-18T23:11:43.457Z,4.22
2018-12-18T23:14:10.985Z,4.22
2018-12-18T23:16:38.532Z,4.23
2018-12-18T23:19:06.189Z,4.29
2018-12-18T23:21:33.732Z,4.29
2018-12-18T23:24:01.170Z,4.37
2018-12-18T23:26:29.415Z,4.40
2018-12-18T23:28:56.854Z,4.41
2018-12-18T23:31:24.315Z,4.48
2018-12-18T23:33:51.832Z,4.56
2018-12-18T23:36:19.317Z,4.57
2018-12-18T23:38:46.808Z,4.61
2018-12-18T23:41:14.419Z,4.58
2018-12-18T23:43:41.917Z,4.53
2018-12-18T23:46:09.448Z,4.61
2018-12-18T23:48:39.868Z,4.60
2018-12-18T23:51:06.621Z,4.56
2018-12-18T23:53:34.074Z,4.56
2018-12-18T23:56:01.542Z,4.56
2018-12-18T23:58:28.990Z,4.56
